sensor_id;sensor_type;location;lat;lon;timestamp;temperature;humidity
69990;DHT22;57331;52.054;5.294;2022-09-09T00:02:18;16.20;47.20
69990;DHT22;57331;52.054;5.294;2022-09-09T00:05:08;16.70;61.20
69990;DHT22;57331;52.054;5.294;2022-09-09T00:07:52;17.10;61.30
69990;DHT22;57331;52.054;5.294;2022-09-09T00:10:37;16.20;47.10
69990;DHT22;57331;52.054;5.294;2022-09-09T00:13:15;17.40;59.50
69990;DHT22;57331;52.054;5.294;2022-09-09T00:15:57;16.20;50.30
69990;DHT22;57331;52.054;5.294;2022-09-09T00:18:32;15.40;60.80
69990;DHT22;57331;52.054;5.294;2022-09-09T00:21:12;17.40;58.00
69990;DHT22;57331;52.054;5.294;2022-09-09T00:23:53;16.80;61.50
69990;DHT22;57331;52.054;5.294;2022-09-09T00:29:00;17.00;48.60
69990;DHT22;57331;52.054;5.294;2022-09-09T00:31:31;15.90;48.00
69990;DHT22;57331;52.054;5.294;2022-09-09T00:34:03;15.80;48.10
69990;DHT22;57331;52.054;5.294;2022-09-09T00:36:32;16.90;62.40
69990;DHT22;57331;52.054;5.294;2022-09-09T00:39:02;15.80;48.20
69990;DHT22;57331;52.054;5.294;2022-09-09T00:41:50;15.40;62.00
69990;DHT22;57331;52.054;5.294;2022-09-09T00:57:33;15.60;48.70
69990;DHT22;57331;52.054;5.294;2022-09-09T01:00:19;15.50;48.50
69990;DHT22;57331;52.054;5.294;2022-09-09T01:03:02;16.10;61.20
69990;DHT22;57331;52.054;5.294;2022-09-09T01:08:01;15.50;48.80
69990;DHT22;57331;52.054;5.294;2022-09-09T01:10:48;15.10;62.60
69990;DHT22;57331;52.054;5.294;2022-09-09T01:13:25;16.00;63.30
69990;DHT22;57331;52.054;5.294;2022-09-09T01:15:53;15.50;49.10
69990;DHT22;57331;52.054;5.294;2022-09-09T01:18:31;16.40;61.40
69990;DHT22;57331;52.054;5.294;2022-09-09T01:29:12;15.30;49.20
69990;DHT22;57331;52.054;5.294;2022-09-09T01:31:58;16.40;63.90
69990;DHT22;57331;52.054;5.294;2022-09-09T01:34:30;15.30;49.50
69990;DHT22;57331;52.054;5.294;2022-09-09T01:37:09;15.40;49.20
69990;DHT22;57331;52.054;5.294;2022-09-09T01:39:39;16.00;63.70
69990;DHT22;57331;52.054;5.294;2022-09-09T01:42:13;15.80;63.50
69990;DHT22;57331;52.054;5.294;2022-09-09T01:44:41;16.40;64.00
69990;DHT22;57331;52.054;5.294;2022-09-09T01:52:22;15.20;49.30
69990;DHT22;57331;52.054;5.294;2022-09-09T01:54:49;16.50;61.00
69990;DHT22;57331;52.054;5.294;2022-09-09T01:58:08;14.30;62.90
69990;DHT22;57331;52.054;5.294;2022-09-09T02:00:48;15.20;49.50
69990;DHT22;57331;52.054;5.294;2022-09-09T02:03:28;15.10;49.60
69990;DHT22;57331;52.054;5.294;2022-09-09T02:06:34;14.00;63.20
69990;DHT22;57331;52.054;5.294;2022-09-09T02:11:41;13.90;61.50
69990;DHT22;57331;52.054;5.294;2022-09-09T02:14:27;15.20;49.50
69990;DHT22;57331;52.054;5.294;2022-09-09T02:16:57;15.00;49.50
69990;DHT22;57331;52.054;5.294;2022-09-09T02:19:42;15.10;63.60
69990;DHT22;57331;52.054;5.294;2022-09-09T02:22:22;14.10;63.10
69990;DHT22;57331;52.054;5.294;2022-09-09T02:24:52;14.50;63.40
69990;DHT22;57331;52.054;5.294;2022-09-09T02:29:53;15.00;49.80
69990;DHT22;57331;52.054;5.294;2022-09-09T02:32:34;14.90;49.70
69990;DHT22;57331;52.054;5.294;2022-09-09T02:35:16;14.90;49.50
69990;DHT22;57331;52.054;5.294;2022-09-09T02:37:44;14.70;54.60
69990;DHT22;57331;52.054;5.294;2022-09-09T02:40:14;14.90;49.80
69990;DHT22;57331;52.054;5.294;2022-09-09T02:42:49;13.80;51.10
69990;DHT22;57331;52.054;5.294;2022-09-09T02:45:24;15.10;64.10
69990;DHT22;57331;52.054;5.294;2022-09-09T02:48:09;14.80;49.70
69990;DHT22;57331;52.054;5.294;2022-09-09T02:50:54;14.90;50.30
69990;DHT22;57331;52.054;5.294;2022-09-09T02:53:58;14.80;50.20
69990;DHT22;57331;52.054;5.294;2022-09-09T02:56:30;14.30;64.10
69990;DHT22;57331;52.054;5.294;2022-09-09T03:11:27;16.10;65.50
69990;DHT22;57331;52.054;5.294;2022-09-09T03:16:24;14.90;65.10
69990;DHT22;57331;52.054;5.294;2022-09-09T03:28:45;15.30;65.90
69990;DHT22;57331;52.054;5.294;2022-09-09T03:36:14;14.40;51.20
69990;DHT22;57331;52.054;5.294;2022-09-09T03:56:01;13.30;65.60
69990;DHT22;57331;52.054;5.294;2022-09-09T03:58:29;15.10;66.50
69990;DHT22;57331;52.054;5.294;2022-09-09T04:03:29;14.50;51.90
69990;DHT22;57331;52.054;5.294;2022-09-09T04:05:58;14.40;52.00
69990;DHT22;57331;52.054;5.294;2022-09-09T04:15:58;14.50;52.00
69990;DHT22;57331;52.054;5.294;2022-09-09T04:18:27;13.30;65.60
69990;DHT22;57331;52.054;5.294;2022-09-09T04:23:27;13.40;65.60
69990;DHT22;57331;52.054;5.294;2022-09-09T04:25:59;14.70;52.00
69990;DHT22;57331;52.054;5.294;2022-09-09T04:28:31;17.30;53.10
69990;DHT22;57331;52.054;5.294;2022-09-09T04:31:07;14.70;51.90
69990;DHT22;57331;52.054;5.294;2022-09-09T04:38:35;15.70;66.80
69990;DHT22;57331;52.054;5.294;2022-09-09T04:41:03;15.60;66.90
69990;DHT22;57331;52.054;5.294;2022-09-09T04:51:01;15.90;56.00
69990;DHT22;57331;52.054;5.294;2022-09-09T04:53:30;15.60;67.50
69990;DHT22;57331;52.054;5.294;2022-09-09T04:56:11;13.90;66.30
69990;DHT22;57331;52.054;5.294;2022-09-09T05:01:15;14.40;52.80
69990;DHT22;57331;52.054;5.294;2022-09-09T05:03:45;13.30;53.40
69990;DHT22;57331;52.054;5.294;2022-09-09T05:06:17;14.50;52.90
69990;DHT22;57331;52.054;5.294;2022-09-09T05:11:22;14.50;53.00
69990;DHT22;57331;52.054;5.294;2022-09-09T05:13:56;13.80;66.60
69990;DHT22;57331;52.054;5.294;2022-09-09T05:18:51;13.50;66.50
69990;DHT22;57331;52.054;5.294;2022-09-09T05:21:20;14.50;53.00
69990;DHT22;57331;52.054;5.294;2022-09-09T05:26:16;14.50;53.20
69990;DHT22;57331;52.054;5.294;2022-09-09T05:31:16;14.50;53.50
69990;DHT22;57331;52.054;5.294;2022-09-09T05:33:46;12.80;52.10
69990;DHT22;57331;52.054;5.294;2022-09-09T05:36:21;13.70;67.10
69990;DHT22;57331;52.054;5.294;2022-09-09T05:38:51;13.50;66.90
69990;DHT22;57331;52.054;5.294;2022-09-09T05:46:21;14.80;53.30
69990;DHT22;57331;52.054;5.294;2022-09-09T05:48:51;14.90;53.10
69990;DHT22;57331;52.054;5.294;2022-09-09T05:51:22;15.80;68.10
69990;DHT22;57331;52.054;5.294;2022-09-09T05:53:50;15.00;53.20
69990;DHT22;57331;52.054;5.294;2022-09-09T05:56:30;15.90;67.80
69990;DHT22;57331;52.054;5.294;2022-09-09T06:01:32;15.20;53.20
69990;DHT22;57331;52.054;5.294;2022-09-09T06:06:38;15.40;52.70
69990;DHT22;57331;52.054;5.294;2022-09-09T06:09:12;17.00;67.70
69990;DHT22;57331;52.054;5.294;2022-09-09T06:16:39;14.70;62.00
69990;DHT22;57331;52.054;5.294;2022-09-09T06:19:13;16.10;66.70
69990;DHT22;57331;52.054;5.294;2022-09-09T06:26:40;15.20;65.90
69990;DHT22;57331;52.054;5.294;2022-09-09T06:31:37;16.00;65.50
69990;DHT22;57331;52.054;5.294;2022-09-09T06:36:42;15.20;64.30
69990;DHT22;57331;52.054;5.294;2022-09-09T06:39:09;15.20;64.40
69990;DHT22;57331;52.054;5.294;2022-09-09T07:32:51;16.90;58.90
69990;DHT22;57331;52.054;5.294;2022-09-09T07:35:19;17.10;58.50
69990;DHT22;57331;52.054;5.294;2022-09-09T07:42:47;19.90;58.00
69990;DHT22;57331;52.054;5.294;2022-09-09T07:45:14;17.50;56.50
69990;DHT22;57331;52.054;5.294;2022-09-09T07:47:43;18.70;53.80
69990;DHT22;57331;52.054;5.294;2022-09-09T08:00:04;17.90;48.70
69990;DHT22;57331;52.054;5.294;2022-09-09T08:02:38;18.80;58.00
69990;DHT22;57331;52.054;5.294;2022-09-09T08:07:33;17.40;57.30
69990;DHT22;57331;52.054;5.294;2022-09-09T08:12:30;16.90;47.90
69990;DHT22;57331;52.054;5.294;2022-09-09T08:14:59;18.00;44.50
69990;DHT22;57331;52.054;5.294;2022-09-09T08:17:31;18.40;58.10
69990;DHT22;57331;52.054;5.294;2022-09-09T08:20:03;17.20;57.00
69990;DHT22;57331;52.054;5.294;2022-09-09T08:30:03;16.60;57.00
69990;DHT22;57331;52.054;5.294;2022-09-09T08:32:30;18.40;53.60
69990;DHT22;57331;52.054;5.294;2022-09-09T09:10:46;17.60;56.50
69990;DHT22;57331;52.054;5.294;2022-09-09T09:13:43;18.10;57.30
69990;DHT22;57331;52.054;5.294;2022-09-09T09:27:33;18.50;41.00
69990;DHT22;57331;52.054;5.294;2022-09-09T09:30:31;18.40;41.90
69990;DHT22;57331;52.054;5.294;2022-09-09T09:38:26;18.20;42.20
69990;DHT22;57331;52.054;5.294;2022-09-09T09:41:14;19.50;56.40
69990;DHT22;57331;52.054;5.294;2022-09-09T09:43:41;17.90;52.40
69990;DHT22;57331;52.054;5.294;2022-09-09T09:46:24;18.20;43.10
69990;DHT22;57331;52.054;5.294;2022-09-09T09:49:09;18.10;43.70
69990;DHT22;57331;52.054;5.294;2022-09-09T09:54:28;16.90;46.70
69990;DHT22;57331;52.054;5.294;2022-09-09T09:57:14;18.10;44.00
69990;DHT22;57331;52.054;5.294;2022-09-09T10:02:22;19.20;57.70
69990;DHT22;57331;52.054;5.294;2022-09-09T10:05:05;17.90;43.60
69990;DHT22;57331;52.054;5.294;2022-09-09T10:07:34;19.10;56.90
69990;DHT22;57331;52.054;5.294;2022-09-09T10:12:53;17.80;43.60
69990;DHT22;57331;52.054;5.294;2022-09-09T10:15:48;18.70;47.00
69990;DHT22;57331;52.054;5.294;2022-09-09T10:18:45;18.00;44.20
69990;DHT22;57331;52.054;5.294;2022-09-09T10:21:25;18.20;48.30
69990;DHT22;57331;52.054;5.294;2022-09-09T10:32:54;17.90;45.10
69990;DHT22;57331;52.054;5.294;2022-09-09T10:49:48;18.90;44.40
69990;DHT22;57331;52.054;5.294;2022-09-09T10:55:26;20.00;43.80
69990;DHT22;57331;52.054;5.294;2022-09-09T10:57:58;21.10;55.00
69990;DHT22;57331;52.054;5.294;2022-09-09T11:00:37;20.40;39.00
69990;DHT22;57331;52.054;5.294;2022-09-09T11:05:43;20.10;39.90
69990;DHT22;57331;52.054;5.294;2022-09-09T11:08:15;20.10;40.30
69990;DHT22;57331;52.054;5.294;2022-09-09T11:11:11;21.20;45.10
69990;DHT22;57331;52.054;5.294;2022-09-09T11:30:22;19.20;40.40
69990;DHT22;57331;52.054;5.294;2022-09-09T11:39:23;19.00;40.30
69990;DHT22;57331;52.054;5.294;2022-09-09T11:44:28;18.80;42.80
69990;DHT22;57331;52.054;5.294;2022-09-09T11:49:29;18.90;42.70
69990;DHT22;57331;52.054;5.294;2022-09-09T11:54:33;21.20;45.30
69990;DHT22;57331;52.054;5.294;2022-09-09T11:57:37;17.90;54.60
69990;DHT22;57331;52.054;5.294;2022-09-09T12:00:05;19.60;42.40
69990;DHT22;57331;52.054;5.294;2022-09-09T12:02:48;20.00;54.80
69990;DHT22;57331;52.054;5.294;2022-09-09T12:05:16;19.30;55.00
69990;DHT22;57331;52.054;5.294;2022-09-09T12:10:29;18.70;43.10
69990;DHT22;57331;52.054;5.294;2022-09-09T12:13:08;18.60;44.10
69990;DHT22;57331;52.054;5.294;2022-09-09T12:15:56;18.70;43.90
69990;DHT22;57331;52.054;5.294;2022-09-09T12:18:31;20.20;56.80
69990;DHT22;57331;52.054;5.294;2022-09-09T12:21:07;19.00;44.00
69990;DHT22;57331;52.054;5.294;2022-09-09T12:24:04;19.30;43.40
69990;DHT22;57331;52.054;5.294;2022-09-09T12:26:58;19.40;43.30
69990;DHT22;57331;52.054;5.294;2022-09-09T12:32:22;17.90;55.10
69990;DHT22;57331;52.054;5.294;2022-09-09T12:34:59;19.20;42.70
69990;DHT22;57331;52.054;5.294;2022-09-09T12:37:34;19.10;42.60
69990;DHT22;57331;52.054;5.294;2022-09-09T12:40:32;19.10;43.00
69990;DHT22;57331;52.054;5.294;2022-09-09T12:43:22;19.50;56.30
69990;DHT22;57331;52.054;5.294;2022-09-09T12:45:52;18.00;54.60
69990;DHT22;57331;52.054;5.294;2022-09-09T12:48:36;19.50;42.10
69990;DHT22;57331;52.054;5.294;2022-09-09T12:51:07;21.00;47.70
69990;DHT22;57331;52.054;5.294;2022-09-09T12:53:44;19.70;40.60
69990;DHT22;57331;52.054;5.294;2022-09-09T12:56:32;19.50;43.00
69990;DHT22;57331;52.054;5.294;2022-09-09T13:01:30;21.50;51.80
69990;DHT22;57331;52.054;5.294;2022-09-09T13:06:27;20.60;50.40
69990;DHT22;57331;52.054;5.294;2022-09-09T13:08:57;20.20;38.40
69990;DHT22;57331;52.054;5.294;2022-09-09T13:11:39;19.20;45.80
69990;DHT22;57331;52.054;5.294;2022-09-09T13:14:19;19.90;38.90
69990;DHT22;57331;52.054;5.294;2022-09-09T13:16:59;19.20;51.90
69990;DHT22;57331;52.054;5.294;2022-09-09T13:19:30;19.70;40.00
69990;DHT22;57331;52.054;5.294;2022-09-09T13:22:14;19.60;40.60
69990;DHT22;57331;52.054;5.294;2022-09-09T13:27:31;18.90;53.40
69990;DHT22;57331;52.054;5.294;2022-09-09T13:29:58;18.40;51.80
69990;DHT22;57331;52.054;5.294;2022-09-09T13:32:27;19.70;40.90
69990;DHT22;57331;52.054;5.294;2022-09-09T13:34:59;19.80;40.80
69990;DHT22;57331;52.054;5.294;2022-09-09T13:37:44;19.80;40.40
69990;DHT22;57331;52.054;5.294;2022-09-09T13:40:21;18.40;46.70
69990;DHT22;57331;52.054;5.294;2022-09-09T13:42:52;19.40;52.50
69990;DHT22;57331;52.054;5.294;2022-09-09T13:45:24;19.80;40.10
69990;DHT22;57331;52.054;5.294;2022-09-09T13:47:54;19.80;40.00
69990;DHT22;57331;52.054;5.294;2022-09-09T13:50:23;19.90;39.80
69990;DHT22;57331;52.054;5.294;2022-09-09T13:52:53;19.90;39.50
69990;DHT22;57331;52.054;5.294;2022-09-09T13:55:22;22.70;42.50
69990;DHT22;57331;52.054;5.294;2022-09-09T14:02:48;19.90;39.10
69990;DHT22;57331;52.054;5.294;2022-09-09T14:07:43;19.70;43.50
69990;DHT22;57331;52.054;5.294;2022-09-09T14:10:11;19.80;41.00
69990;DHT22;57331;52.054;5.294;2022-09-09T14:12:38;21.00;53.60
69990;DHT22;57331;52.054;5.294;2022-09-09T14:27:33;18.50;55.40
69990;DHT22;57331;52.054;5.294;2022-09-09T14:34:55;19.30;56.10
69990;DHT22;57331;52.054;5.294;2022-09-09T14:37:22;20.80;57.90
69990;DHT22;57331;52.054;5.294;2022-09-09T14:42:17;21.40;51.50
69990;DHT22;57331;52.054;5.294;2022-09-09T14:44:44;23.40;41.80
69990;DHT22;57331;52.054;5.294;2022-09-09T14:52:10;23.40;47.10
69990;DHT22;57331;52.054;5.294;2022-09-09T14:59:32;23.20;37.40
69990;DHT22;57331;52.054;5.294;2022-09-09T15:01:58;25.80;34.40
69990;DHT22;57331;52.054;5.294;2022-09-09T15:06:57;23.50;35.00
69990;DHT22;57331;52.054;5.294;2022-09-09T15:09:25;22.30;35.70
69990;DHT22;57331;52.054;5.294;2022-09-09T15:14:19;22.50;42.10
69990;DHT22;57331;52.054;5.294;2022-09-09T15:16:51;22.20;44.70
69990;DHT22;57331;52.054;5.294;2022-09-09T15:29:09;21.50;45.30
69990;DHT22;57331;52.054;5.294;2022-09-09T15:34:05;20.80;34.10
69990;DHT22;57331;52.054;5.294;2022-09-09T15:36:35;20.90;34.20
69990;DHT22;57331;52.054;5.294;2022-09-09T15:39:04;21.10;34.20
69990;DHT22;57331;52.054;5.294;2022-09-09T15:44:00;21.70;32.70
69990;DHT22;57331;52.054;5.294;2022-09-09T15:49:04;22.40;31.10
69990;DHT22;57331;52.054;5.294;2022-09-09T15:51:32;23.00;42.30
69990;DHT22;57331;52.054;5.294;2022-09-09T15:54:16;23.20;31.20
69990;DHT22;57331;52.054;5.294;2022-09-09T15:56:45;21.90;38.10
69990;DHT22;57331;52.054;5.294;2022-09-09T15:59:13;24.40;38.90
69990;DHT22;57331;52.054;5.294;2022-09-09T16:01:41;25.90;37.50
69990;DHT22;57331;52.054;5.294;2022-09-09T16:04:09;27.60;35.40
69990;DHT22;57331;52.054;5.294;2022-09-09T16:06:36;26.60;27.10
69990;DHT22;57331;52.054;5.294;2022-09-09T16:09:05;28.00;22.10
69990;DHT22;57331;52.054;5.294;2022-09-09T16:11:35;28.40;19.40
69990;DHT22;57331;52.054;5.294;2022-09-09T16:14:05;28.10;19.20
69990;DHT22;57331;52.054;5.294;2022-09-09T16:16:34;27.70;25.50
69990;DHT22;57331;52.054;5.294;2022-09-09T16:19:09;27.60;24.80
69990;DHT22;57331;52.054;5.294;2022-09-09T16:21:46;28.20;25.20
69990;DHT22;57331;52.054;5.294;2022-09-09T16:24:15;28.00;24.70
69990;DHT22;57331;52.054;5.294;2022-09-09T16:26:49;26.60;25.50
69990;DHT22;57331;52.054;5.294;2022-09-09T16:29:17;27.30;18.90
69990;DHT22;57331;52.054;5.294;2022-09-09T16:31:45;25.10;27.30
69990;DHT22;57331;52.054;5.294;2022-09-09T16:34:14;23.70;28.60
69990;DHT22;57331;52.054;5.294;2022-09-09T16:36:42;23.10;28.10
69990;DHT22;57331;52.054;5.294;2022-09-09T16:39:12;24.40;33.00
69990;DHT22;57331;52.054;5.294;2022-09-09T16:41:40;22.90;32.50
69990;DHT22;57331;52.054;5.294;2022-09-09T16:44:11;25.00;34.10
69990;DHT22;57331;52.054;5.294;2022-09-09T16:46:41;22.00;33.60
69990;DHT22;57331;52.054;5.294;2022-09-09T16:49:13;23.10;26.50
69990;DHT22;57331;52.054;5.294;2022-09-09T16:51:47;23.00;26.40
69990;DHT22;57331;52.054;5.294;2022-09-09T16:54:16;22.00;29.90
69990;DHT22;57331;52.054;5.294;2022-09-09T16:56:45;22.90;26.50
69990;DHT22;57331;52.054;5.294;2022-09-09T16:59:19;22.60;26.90
69990;DHT22;57331;52.054;5.294;2022-09-09T17:01:48;21.20;37.30
69990;DHT22;57331;52.054;5.294;2022-09-09T17:04:17;21.60;28.90
69990;DHT22;57331;52.054;5.294;2022-09-09T17:06:48;20.20;40.00
69990;DHT22;57331;52.054;5.294;2022-09-09T17:09:17;21.10;30.30
69990;DHT22;57331;52.054;5.294;2022-09-09T17:11:44;20.90;31.00
69990;DHT22;57331;52.054;5.294;2022-09-09T17:14:15;20.80;31.50
69990;DHT22;57331;52.054;5.294;2022-09-09T17:16:42;21.20;43.70
69990;DHT22;57331;52.054;5.294;2022-09-09T17:19:12;20.30;44.00
69990;DHT22;57331;52.054;5.294;2022-09-09T17:21:41;21.70;40.50
69990;DHT22;57331;52.054;5.294;2022-09-09T17:26:56;18.90;44.90
69990;DHT22;57331;52.054;5.294;2022-09-09T17:29:23;21.10;46.40
69990;DHT22;57331;52.054;5.294;2022-09-09T17:36:46;20.50;35.70
69990;DHT22;57331;52.054;5.294;2022-09-09T17:41:40;18.60;43.60
69990;DHT22;57331;52.054;5.294;2022-09-09T17:44:07;19.10;48.50
69990;DHT22;57331;52.054;5.294;2022-09-09T17:46:38;19.30;36.50
69990;DHT22;57331;52.054;5.294;2022-09-09T17:49:14;19.20;36.70
69990;DHT22;57331;52.054;5.294;2022-09-09T17:51:43;19.50;49.60
69990;DHT22;57331;52.054;5.294;2022-09-09T17:54:18;20.40;40.70
69990;DHT22;57331;52.054;5.294;2022-09-09T17:56:46;18.60;49.90
69990;DHT22;57331;52.054;5.294;2022-09-09T17:59:15;18.90;38.00
69990;DHT22;57331;52.054;5.294;2022-09-09T18:01:44;18.90;38.40
69990;DHT22;57331;52.054;5.294;2022-09-09T18:04:13;17.80;50.50
69990;DHT22;57331;52.054;5.294;2022-09-09T18:06:43;18.80;38.70
69990;DHT22;57331;52.054;5.294;2022-09-09T18:09:13;19.20;39.90
69990;DHT22;57331;52.054;5.294;2022-09-09T18:11:43;20.10;52.50
69990;DHT22;57331;52.054;5.294;2022-09-09T18:14:19;19.90;48.20
69990;DHT22;57331;52.054;5.294;2022-09-09T18:16:47;19.20;52.40
69990;DHT22;57331;52.054;5.294;2022-09-09T18:19:17;18.70;39.80
69990;DHT22;57331;52.054;5.294;2022-09-09T18:21:45;18.50;39.90
69990;DHT22;57331;52.054;5.294;2022-09-09T18:24:13;18.20;52.50
69990;DHT22;57331;52.054;5.294;2022-09-09T18:26:41;17.40;52.70
69990;DHT22;57331;52.054;5.294;2022-09-09T18:29:14;17.30;53.10
69990;DHT22;57331;52.054;5.294;2022-09-09T18:34:10;18.40;41.60
69990;DHT22;57331;52.054;5.294;2022-09-09T18:36:45;17.40;54.20
69990;DHT22;57331;52.054;5.294;2022-09-09T18:39:17;17.20;44.30
69990;DHT22;57331;52.054;5.294;2022-09-09T18:41:49;18.30;42.20
69990;DHT22;57331;52.054;5.294;2022-09-09T18:44:21;18.30;42.50
69990;DHT22;57331;52.054;5.294;2022-09-09T18:46:52;19.30;55.70
69990;DHT22;57331;52.054;5.294;2022-09-09T18:49:21;19.10;55.90
69990;DHT22;57331;52.054;5.294;2022-09-09T18:51:48;18.10;55.50
69990;DHT22;57331;52.054;5.294;2022-09-09T18:54:19;19.30;56.30
69990;DHT22;57331;52.054;5.294;2022-09-09T18:59:16;18.20;43.30
69990;DHT22;57331;52.054;5.294;2022-09-09T19:01:47;19.40;56.70
69990;DHT22;57331;52.054;5.294;2022-09-09T19:04:17;18.10;43.50
69990;DHT22;57331;52.054;5.294;2022-09-09T19:06:45;18.10;43.80
69990;DHT22;57331;52.054;5.294;2022-09-09T19:09:15;18.00;44.10
69990;DHT22;57331;52.054;5.294;2022-09-09T19:14:12;17.90;44.20
69990;DHT22;57331;52.054;5.294;2022-09-09T19:16:40;19.00;49.50
69990;DHT22;57331;52.054;5.294;2022-09-09T19:19:19;18.90;57.70
69990;DHT22;57331;52.054;5.294;2022-09-09T19:21:50;19.20;46.70
69990;DHT22;57331;52.054;5.294;2022-09-09T19:24:19;17.90;44.70
69990;DHT22;57331;52.054;5.294;2022-09-09T19:26:48;17.80;44.70
69990;DHT22;57331;52.054;5.294;2022-09-09T19:29:18;17.80;44.80
69990;DHT22;57331;52.054;5.294;2022-09-09T19:31:46;16.60;57.10
69990;DHT22;57331;52.054;5.294;2022-09-09T19:34:36;17.80;44.90
69990;DHT22;57331;52.054;5.294;2022-09-09T19:39:35;16.60;57.40
69990;DHT22;57331;52.054;5.294;2022-09-09T19:46:58;16.70;57.80
69990;DHT22;57331;52.054;5.294;2022-09-09T19:56:50;17.30;59.50
69990;DHT22;57331;52.054;5.294;2022-09-09T20:04:13;18.80;56.90
69990;DHT22;57331;52.054;5.294;2022-09-09T20:06:42;17.40;59.70
69990;DHT22;57331;52.054;5.294;2022-09-09T20:09:14;17.40;46.60
69990;DHT22;57331;52.054;5.294;2022-09-09T20:11:43;17.30;56.50
69990;DHT22;57331;52.054;5.294;2022-09-09T20:14:11;17.20;46.60
69990;DHT22;57331;52.054;5.294;2022-09-09T20:19:08;17.10;46.70
69990;DHT22;57331;52.054;5.294;2022-09-09T20:21:38;17.40;60.40
69990;DHT22;57331;52.054;5.294;2022-09-09T20:24:16;16.10;59.70
69990;DHT22;57331;52.054;5.294;2022-09-09T20:26:45;17.00;46.90
69990;DHT22;57331;52.054;5.294;2022-09-09T20:29:15;17.00;46.90
69990;DHT22;57331;52.054;5.294;2022-09-09T20:31:42;15.80;50.10
69990;DHT22;57331;52.054;5.294;2022-09-09T20:34:15;15.70;59.80
69990;DHT22;57331;52.054;5.294;2022-09-09T20:36:42;16.50;60.30
69990;DHT22;57331;52.054;5.294;2022-09-09T20:39:11;16.90;47.20
69990;DHT22;57331;52.054;5.294;2022-09-09T20:41:41;15.70;52.40
69990;DHT22;57331;52.054;5.294;2022-09-09T20:44:12;16.90;47.80
69990;DHT22;57331;52.054;5.294;2022-09-09T20:46:42;16.80;47.50
69990;DHT22;57331;52.054;5.294;2022-09-09T20:49:10;18.10;61.80
69990;DHT22;57331;52.054;5.294;2022-09-09T20:54:09;16.80;48.10
69990;DHT22;57331;52.054;5.294;2022-09-09T20:56:37;16.80;48.00
69990;DHT22;57331;52.054;5.294;2022-09-09T20:59:12;16.20;58.10
69990;DHT22;57331;52.054;5.294;2022-09-09T21:04:09;16.10;61.60
69990;DHT22;57331;52.054;5.294;2022-09-09T21:09:05;17.10;62.00
69990;DHT22;57331;52.054;5.294;2022-09-09T21:11:32;17.90;62.60
69990;DHT22;57331;52.054;5.294;2022-09-09T21:14:01;17.40;61.90
69990;DHT22;57331;52.054;5.294;2022-09-09T21:16:30;16.80;48.30
69990;DHT22;57331;52.054;5.294;2022-09-09T21:18:57;18.30;62.50
69990;DHT22;57331;52.054;5.294;2022-09-09T21:21:25;16.90;48.60
69990;DHT22;57331;52.054;5.294;2022-09-09T21:23:54;16.80;48.50
69990;DHT22;57331;52.054;5.294;2022-09-09T21:38:51;18.20;63.20
69990;DHT22;57331;52.054;5.294;2022-09-09T21:46:15;16.80;49.00
69990;DHT22;57331;52.054;5.294;2022-09-09T21:48:42;18.20;63.50
69990;DHT22;57331;52.054;5.294;2022-09-09T21:51:13;16.70;49.00
69990;DHT22;57331;52.054;5.294;2022-09-09T21:53:41;16.70;60.20
69990;DHT22;57331;52.054;5.294;2022-09-09T21:56:11;16.70;49.70
69990;DHT22;57331;52.054;5.294;2022-09-09T21:58:38;17.40;63.80
69990;DHT22;57331;52.054;5.294;2022-09-09T22:01:12;16.50;63.40
69990;DHT22;57331;52.054;5.294;2022-09-09T22:06:11;16.70;50.20
69990;DHT22;57331;52.054;5.294;2022-09-09T22:11:10;15.60;62.70
69990;DHT22;57331;52.054;5.294;2022-09-09T22:13:38;15.60;63.10
69990;DHT22;57331;52.054;5.294;2022-09-09T22:16:07;16.60;50.20
69990;DHT22;57331;52.054;5.294;2022-09-09T22:21:09;16.60;49.80
69990;DHT22;57331;52.054;5.294;2022-09-09T22:23:36;17.90;64.40
69990;DHT22;57331;52.054;5.294;2022-09-09T22:26:04;16.50;50.30
69990;DHT22;57331;52.054;5.294;2022-09-09T22:28:34;16.50;50.10
69990;DHT22;57331;52.054;5.294;2022-09-09T22:38:23;15.40;56.80
69990;DHT22;57331;52.054;5.294;2022-09-09T22:43:21;16.40;50.40
69990;DHT22;57331;52.054;5.294;2022-09-09T22:48:17;15.90;63.90
69990;DHT22;57331;52.054;5.294;2022-09-09T22:50:45;16.70;64.30
69990;DHT22;57331;52.054;5.294;2022-09-09T22:53:14;16.60;50.80
69990;DHT22;57331;52.054;5.294;2022-09-09T23:00:38;16.50;50.80
69990;DHT22;57331;52.054;5.294;2022-09-09T23:17:56;16.50;64.70
69990;DHT22;57331;52.054;5.294;2022-09-09T23:27:48;15.60;57.40
69990;DHT22;57331;52.054;5.294;2022-09-09T23:35:12;15.20;64.00
69990;DHT22;57331;52.054;5.294;2022-09-09T23:40:07;15.40;64.20
69990;DHT22;57331;52.054;5.294;2022-09-09T23:42:33;15.60;64.20
69990;DHT22;57331;52.054;5.294;2022-09-09T23:49:56;16.50;55.90
69990;DHT22;57331;52.054;5.294;2022-09-09T23:52:23;15.50;64.10
69990;DHT22;57331;52.054;5.294;2022-09-09T23:57:19;17.30;65.10
